This is the latest recevied weather packets stored in our database for station/object KR8N. If no packets are shown the sender has not sent any weather packets the latest 1 day(s).
| Time | Temp. | Humidity | Pressure | Rain* | Wind** | Luminosity | Snow |
|---|---|---|---|---|---|---|---|
| 1777989352 | 20° C | 49% | 1017.5 hPa | 0 mm | 1.34 m/s, 193° | 488 W/m² | - |
| 1777989048 | 19.44° C | 52% | 1017.7 hPa | 0 mm | 1.34 m/s, 140° | 380 W/m² | - |
| 1777988744 | 18.89° C | 54% | 1017.7 hPa | 0 mm | 1.34 m/s, 172° | 484 W/m² | - |
| 1777988442 | 18.89° C | 54% | 1017.7 hPa | 0 mm | 0.89 m/s, 116° | 369 W/m² | - |
| 1777988138 | 18.33° C | 56% | 1017.7 hPa | 0 mm | 0.89 m/s, 135° | 414 W/m² | - |
| 1777987834 | 17.78° C | 58% | 1017.7 hPa | 0 mm | 0.45 m/s, 107° | 364 W/m² | - |
| 1777987531 | 17.22° C | 59% | 1017.8 hPa | 0 mm | 0.89 m/s, 107° | 404 W/m² | - |
| 1777987229 | 16.67° C | 60% | 1017.8 hPa | 0 mm | 0.89 m/s, 112° | 209 W/m² | - |
| 1777986925 | 16.67° C | 60% | 1017.9 hPa | 0 mm | 0.89 m/s, 115° | 469 W/m² | - |
| 1777986624 | 16.11° C | 63% | 1017.9 hPa | 0 mm | 0 m/s | 197 W/m² | - |
| 1777986321 | 16.11° C | 61% | 1017.9 hPa | 0 mm | 0 m/s | 171 W/m² | - |
| 1777986020 | 16.11° C | 61% | 1017.8 hPa | 0 mm | 0.89 m/s, 134° | 185 W/m² | - |
| 1777985716 | 16.67° C | 60% | 1017.7 hPa | 0 mm | 0.45 m/s, 126° | 183 W/m² | - |
| 1777985412 | 16.67° C | 59% | 1017.7 hPa | 0 mm | 0.89 m/s, 145° | 173 W/m² | - |
| 1777985109 | 16.11° C | 62% | 1017.8 hPa | 0 mm | 0.45 m/s, 97° | 132 W/m² | - |
| 1777984805 | 16.11° C | 62% | 1017.6 hPa | 0 mm | 0 m/s | 137 W/m² | - |
| 1777984502 | 15.56° C | 63% | 1017.8 hPa | 0 mm | 0 m/s | 243 W/m² | - |
| 1777984198 | 15° C | 64% | 1017.6 hPa | 0 mm | 0.45 m/s, 110° | 135 W/m² | - |
| 1777983895 | 15° C | 66% | 1017.4 hPa | 0 mm | 0.45 m/s, 133° | 215 W/m² | - |
| 1777983592 | 14.44° C | 67% | 1017.6 hPa | 0 mm | 0.45 m/s, 118° | 197 W/m² | - |
| 1777983289 | 13.33° C | 71% | 1017.4 hPa | 0 mm | 0 m/s | 114 W/m² | - |
| 1777982985 | 13.33° C | 74% | 1017.4 hPa | 0 mm | 0 m/s | 135 W/m² | - |
| 1777982681 | 13.33° C | 73% | 1017.6 hPa | 0 mm | 0.45 m/s, 97° | 116 W/m² | - |
| 1777982381 | 13.33° C | 73% | 1017.3 hPa | 0 mm | 0 m/s | 80 W/m² | - |
| 1777982077 | 13.89° C | 70% | 1017.4 hPa | 0 mm | 0.45 m/s, 98° | 100 W/m² | - |
* Rain latest hour (hover to see other rain measurements)
** Current wind speed in m/s (hover to see current wind gust speed)